Accueil
METAR-TAF:

METAR-TAF

Aéroports :

Aéroport de Weeze

Weeze, Allemagne

latitude: 51-36-09N, longitude: 006-08-32E, altitude: 32 m

Observation

Le bulletin a été fait il y a 7 heures et 10 minutes, à 22:50 UTC
Vent 3 kt de nord-ouest
Température 4°C
Humidité 65%
Pression 1024 hPa
Visibilité 10 km ou plus
pas de nuages en-dessous de 1500 mètres et pas de cumulonimbus.

METAR: EDLV 072250Z 31003KT CAVOK 04/M02 Q1024

Heure: 07:00 (06:00 UTC)

Prévision

Le bulletin a été fait il y a 13 heures et 0 minutes, à 17:00 UTC
Prévision valable du 07 à 18 UTC au 08 à 18 UTC
Vent 3 kt de direction variable
Visibilité 10 km ou plus
Nuages fragmentés à une hauteur de 3500 ft
Probabilité 30% :
Temporairement
du 08 à 06 UTC au 08 à 11 UTC
Visibilité: 4000 m
Nuages fragmentés à une hauteur de 1000 ft
brume

TAF: EDLV 071700Z 0718/0818 VRB03KT 9999 BKN035 PROB30 TEMPO 0806/0811 4000 BR BKN010

Observations et prévisions météorologiques de plus de 4000 aéroports (messages METAR et TAF).

Les stations disponibles sont représentées par des disques jaunes et rouges sur la carte.

Passer la souris dessus pour voir le nom de la station.

Cliquer dessus pour voir les observations et prévisions météorologiques.

Pour changer de carte: cliquez sur les boutons verts avec une croix noire pour zoomer, sur le bouton vert avec un tiret pour effectuer un zoom arrière, ou sur les flèches vertes pour les cartes adjacentes.


METAR-TAF: